Wolfeboro, NH (03894)

7:56 AM EST on December 10, 2016 (GMT -0500)
WCYC | | Change Station

Elev 524 ft 43.58 °N, 71.22 °W | Updated 25 seconds ago

Clear
Clear
19.6 °F
Feels Like 8 °F
N
10.0
Wind Variable Wind from WNW
Gusts 18.0 mph

Today
High -- | Low -- °F
--% Chance of Precip.
Yesterday
High -- | Low -- °F
Precip. -- in
Pressure 30.27 in
Visibility 10.0 miles
Clouds Scattered Clouds 3900 ft
Windchill 8 °F
Dew Point 8 °F
Humidity 61%
Rainfall 0.00 in
Snow Depth Not available.
7:07 AM 4:08 PM
Waxing Gibbous, 83% visible
METAR KLCI 101156Z AUTO 26005KT 10SM SCT039 M08/M15 A3021 RMK AO2 SLP250 T10831150 11072 21083 53012 FZRANO
Pressure 30.27 in
Visibility 10.0 miles
Clouds Scattered Clouds 3900 ft
Windchill 8 °F
Dew Point 8 °F
Humidity 61%
Rainfall 0.00 in
Snow Depth Not available.
7:07 AM 4:08 PM
Waxing Gibbous, 83% visible
METAR KLCI 101156Z AUTO 26005KT 10SM SCT039 M08/M15 A3021 RMK AO2 SLP250 T10831150 11072 21083 53012 FZRANO

10-Day Weather Forecast

Almanac

Astronomy

Dec. 10, 2016 Rise Set
Actual Time
Civil Twilight
Nautical Twilight
Astronomical Twilight
Moon
Length of Visible Light
Length of Day
Tomorrow will be .
, % of the Moon is Illuminated

Today's Extremes

State Highs State Lows

Community

WunderPhotos

Upload Photos

1,956,540 photos uploaded!

WunderBlog® & News

Nearby

Air Quality

  Air Quality AQ Index Pollutant
Not available.

Snow Depth

Station Depth Elevation

Earthquake Activity

City Distance Mag. Time & Date
Minimum magnitude displayed is 2.5.

Coastal Water Temperatures

Place Temperature

Stations

Nearby Weather Stations

Station Location Temp. Windchill Dew Point Humidity Wind Precip. Elev Updated Type
                   

Watches & Warnings

There are currently no watches in effect.